sensor_id;sensor_type;location;lat;lon;timestamp;pressure;altitude;pressure_sealevel;temperature
15170;BMP280;7685;47.406;8.540;2024-03-17T00:02:17;96976.41;;;11.57
15170;BMP280;7685;47.406;8.540;2024-03-17T00:04:44;96986.34;;;11.56
15170;BMP280;7685;47.406;8.540;2024-03-17T00:07:11;96988.47;;;11.58
15170;BMP280;7685;47.406;8.540;2024-03-17T00:09:36;96985.09;;;11.57
15170;BMP280;7685;47.406;8.540;2024-03-17T00:12:02;96986.91;;;11.55
15170;BMP280;7685;47.406;8.540;2024-03-17T00:14:28;96989.56;;;11.55
15170;BMP280;7685;47.406;8.540;2024-03-17T00:16:53;96990.78;;;11.54
15170;BMP280;7685;47.406;8.540;2024-03-17T00:19:19;96989.41;;;11.53
15170;BMP280;7685;47.406;8.540;2024-03-17T00:21:48;96987.44;;;11.53
15170;BMP280;7685;47.406;8.540;2024-03-17T00:24:16;96985.47;;;11.54
15170;BMP280;7685;47.406;8.540;2024-03-17T00:26:42;96984.94;;;11.55
15170;BMP280;7685;47.406;8.540;2024-03-17T00:29:08;96975.41;;;11.52
15170;BMP280;7685;47.406;8.540;2024-03-17T00:31:34;96970.94;;;11.55
15170;BMP280;7685;47.406;8.540;2024-03-17T00:33:59;96973.03;;;11.56
15170;BMP280;7685;47.406;8.540;2024-03-17T00:36:25;96967.03;;;11.56
15170;BMP280;7685;47.406;8.540;2024-03-17T00:38:50;96963.47;;;11.53
15170;BMP280;7685;47.406;8.540;2024-03-17T00:41:17;96956.19;;;11.54
15170;BMP280;7685;47.406;8.540;2024-03-17T00:43:42;96958.00;;;11.51
15170;BMP280;7685;47.406;8.540;2024-03-17T00:46:08;96949.19;;;11.49
15170;BMP280;7685;47.406;8.540;2024-03-17T00:48:34;96949.88;;;11.49
15170;BMP280;7685;47.406;8.540;2024-03-17T00:51:00;96951.09;;;11.48
15170;BMP280;7685;47.406;8.540;2024-03-17T00:53:25;96948.84;;;11.44
15170;BMP280;7685;47.406;8.540;2024-03-17T00:55:52;96952.22;;;11.45
15170;BMP280;7685;47.406;8.540;2024-03-17T00:58:21;96948.16;;;11.44
15170;BMP280;7685;47.406;8.540;2024-03-17T01:00:47;96952.38;;;11.47
15170;BMP280;7685;47.406;8.540;2024-03-17T01:03:16;96942.44;;;11.48
15170;BMP280;7685;47.406;8.540;2024-03-17T01:05:41;96950.41;;;11.48
15170;BMP280;7685;47.406;8.540;2024-03-17T01:08:13;96945.78;;;11.48
15170;BMP280;7685;47.406;8.540;2024-03-17T01:10:39;96942.59;;;11.50
15170;BMP280;7685;47.406;8.540;2024-03-17T01:13:09;96938.69;;;11.51
15170;BMP280;7685;47.406;8.540;2024-03-17T01:15:39;96933.38;;;11.51
15170;BMP280;7685;47.406;8.540;2024-03-17T01:18:05;96919.91;;;11.49
15170;BMP280;7685;47.406;8.540;2024-03-17T01:20:32;96914.03;;;11.50
15170;BMP280;7685;47.406;8.540;2024-03-17T01:22:58;96914.75;;;11.51
15170;BMP280;7685;47.406;8.540;2024-03-17T01:25:24;96914.91;;;11.53
15170;BMP280;7685;47.406;8.540;2024-03-17T01:27:51;96914.31;;;11.54
15170;BMP280;7685;47.406;8.540;2024-03-17T01:30:17;96904.28;;;11.53
15170;BMP280;7685;47.406;8.540;2024-03-17T01:32:45;96900.19;;;11.52
15170;BMP280;7685;47.406;8.540;2024-03-17T01:35:11;96904.41;;;11.55
15170;BMP280;7685;47.406;8.540;2024-03-17T01:37:38;96907.59;;;11.53
15170;BMP280;7685;47.406;8.540;2024-03-17T01:40:04;96894.16;;;11.51
15170;BMP280;7685;47.406;8.540;2024-03-17T01:42:36;96897.03;;;11.45
15170;BMP280;7685;47.406;8.540;2024-03-17T01:45:20;96888.22;;;11.43
15170;BMP280;7685;47.406;8.540;2024-03-17T01:47:49;96886.47;;;11.38
15170;BMP280;7685;47.406;8.540;2024-03-17T01:50:14;96881.03;;;11.36
15170;BMP280;7685;47.406;8.540;2024-03-17T01:52:46;96890.09;;;11.33
15170;BMP280;7685;47.406;8.540;2024-03-17T01:55:13;96893.44;;;11.33
15170;BMP280;7685;47.406;8.540;2024-03-17T01:57:39;96879.44;;;11.33
15170;BMP280;7685;47.406;8.540;2024-03-17T02:00:06;96878.75;;;11.32
15170;BMP280;7685;47.406;8.540;2024-03-17T02:02:34;96883.22;;;11.30
15170;BMP280;7685;47.406;8.540;2024-03-17T02:05:01;96876.84;;;11.25
15170;BMP280;7685;47.406;8.540;2024-03-17T02:07:28;96876.13;;;11.25
15170;BMP280;7685;47.406;8.540;2024-03-17T02:09:53;96867.47;;;11.24
15170;BMP280;7685;47.406;8.540;2024-03-17T02:12:19;96866.06;;;11.23
15170;BMP280;7685;47.406;8.540;2024-03-17T02:14:44;96869.94;;;11.22
15170;BMP280;7685;47.406;8.540;2024-03-17T02:17:10;96866.47;;;11.20
15170;BMP280;7685;47.406;8.540;2024-03-17T02:19:36;96868.56;;;11.21
15170;BMP280;7685;47.406;8.540;2024-03-17T02:22:02;96862.38;;;11.18
15170;BMP280;7685;47.406;8.540;2024-03-17T02:24:27;96857.59;;;11.17
15170;BMP280;7685;47.406;8.540;2024-03-17T02:26:52;96863.81;;;11.20
15170;BMP280;7685;47.406;8.540;2024-03-17T02:29:18;96864.16;;;11.16
15170;BMP280;7685;47.406;8.540;2024-03-17T02:31:43;96862.94;;;11.17
15170;BMP280;7685;47.406;8.540;2024-03-17T02:34:09;96854.78;;;11.15
15170;BMP280;7685;47.406;8.540;2024-03-17T02:36:35;96848.44;;;11.10
15170;BMP280;7685;47.406;8.540;2024-03-17T02:39:00;96850.72;;;11.14
15170;BMP280;7685;47.406;8.540;2024-03-17T02:41:45;96849.84;;;11.11
15170;BMP280;7685;47.406;8.540;2024-03-17T02:44:11;96855.88;;;11.12
15170;BMP280;7685;47.406;8.540;2024-03-17T02:46:37;96846.88;;;11.07
15170;BMP280;7685;47.406;8.540;2024-03-17T02:49:04;96847.44;;;11.06
15170;BMP280;7685;47.406;8.540;2024-03-17T02:51:29;96848.69;;;11.05
15170;BMP280;7685;47.406;8.540;2024-03-17T02:53:55;96851.16;;;11.03
15170;BMP280;7685;47.406;8.540;2024-03-17T02:56:21;96847.28;;;11.04
15170;BMP280;7685;47.406;8.540;2024-03-17T02:58:47;96852.59;;;11.04
15170;BMP280;7685;47.406;8.540;2024-03-17T03:01:13;96849.75;;;11.02
15170;BMP280;7685;47.406;8.540;2024-03-17T03:03:40;96839.34;;;10.96
15170;BMP280;7685;47.406;8.540;2024-03-17T03:06:05;96831.75;;;10.92
15170;BMP280;7685;47.406;8.540;2024-03-17T03:08:43;96820.81;;;10.88
15170;BMP280;7685;47.406;8.540;2024-03-17T03:11:10;96823.84;;;10.85
15170;BMP280;7685;47.406;8.540;2024-03-17T03:13:41;96826.50;;;10.85
15170;BMP280;7685;47.406;8.540;2024-03-17T03:16:09;96813.63;;;10.81
15170;BMP280;7685;47.406;8.540;2024-03-17T03:18:36;96819.31;;;10.78
15170;BMP280;7685;47.406;8.540;2024-03-17T03:21:02;96814.41;;;10.74
15170;BMP280;7685;47.406;8.540;2024-03-17T03:23:28;96822.03;;;10.70
15170;BMP280;7685;47.406;8.540;2024-03-17T03:25:58;96822.72;;;10.71
15170;BMP280;7685;47.406;8.540;2024-03-17T03:28:25;96819.75;;;10.66
15170;BMP280;7685;47.406;8.540;2024-03-17T03:30:50;96815.00;;;10.65
15170;BMP280;7685;47.406;8.540;2024-03-17T03:33:19;96820.13;;;10.63
15170;BMP280;7685;47.406;8.540;2024-03-17T03:35:45;96830.06;;;10.62
15170;BMP280;7685;47.406;8.540;2024-03-17T03:38:12;96830.59;;;10.61
15170;BMP280;7685;47.406;8.540;2024-03-17T03:40:42;96823.69;;;10.58
15170;BMP280;7685;47.406;8.540;2024-03-17T03:43:09;96819.50;;;10.55
15170;BMP280;7685;47.406;8.540;2024-03-17T03:45:35;96818.78;;;10.54
15170;BMP280;7685;47.406;8.540;2024-03-17T03:48:01;96819.72;;;10.49
15170;BMP280;7685;47.406;8.540;2024-03-17T03:50:28;96822.75;;;10.46
15170;BMP280;7685;47.406;8.540;2024-03-17T03:52:54;96817.81;;;10.42
15170;BMP280;7685;47.406;8.540;2024-03-17T03:55:20;96816.06;;;10.37
15170;BMP280;7685;47.406;8.540;2024-03-17T03:57:46;96826.00;;;10.36
15170;BMP280;7685;47.406;8.540;2024-03-17T04:00:14;96827.22;;;10.35
15170;BMP280;7685;47.406;8.540;2024-03-17T04:02:43;96815.72;;;10.33
15170;BMP280;7685;47.406;8.540;2024-03-17T04:05:10;96825.81;;;10.34
15170;BMP280;7685;47.406;8.540;2024-03-17T04:07:36;96824.41;;;10.33
15170;BMP280;7685;47.406;8.540;2024-03-17T04:10:03;96823.69;;;10.33
15170;BMP280;7685;47.406;8.540;2024-03-17T04:12:29;96823.53;;;10.31
15170;BMP280;7685;47.406;8.540;2024-03-17T04:14:57;96828.16;;;10.30
15170;BMP280;7685;47.406;8.540;2024-03-17T04:17:22;96831.50;;;10.31
15170;BMP280;7685;47.406;8.540;2024-03-17T04:19:49;96829.41;;;10.29
15170;BMP280;7685;47.406;8.540;2024-03-17T04:22:16;96823.22;;;10.27
15170;BMP280;7685;47.406;8.540;2024-03-17T04:24:45;96822.19;;;10.22
15170;BMP280;7685;47.406;8.540;2024-03-17T04:27:11;96828.03;;;10.21
15170;BMP280;7685;47.406;8.540;2024-03-17T04:29:37;96827.84;;;10.19
15170;BMP280;7685;47.406;8.540;2024-03-17T04:32:02;96814.63;;;10.11
15170;BMP280;7685;47.406;8.540;2024-03-17T04:34:31;96816.22;;;10.14
15170;BMP280;7685;47.406;8.540;2024-03-17T04:36:57;96820.63;;;10.11
15170;BMP280;7685;47.406;8.540;2024-03-17T04:39:23;96816.59;;;10.10
15170;BMP280;7685;47.406;8.540;2024-03-17T04:41:50;96817.66;;;10.07
15170;BMP280;7685;47.406;8.540;2024-03-17T04:44:16;96817.66;;;10.07
15170;BMP280;7685;47.406;8.540;2024-03-17T04:46:43;96817.34;;;10.03
15170;BMP280;7685;47.406;8.540;2024-03-17T04:49:08;96818.75;;;10.04
15170;BMP280;7685;47.406;8.540;2024-03-17T04:51:34;96821.22;;;10.02
15170;BMP280;7685;47.406;8.540;2024-03-17T04:54:01;96817.16;;;10.01
15170;BMP280;7685;47.406;8.540;2024-03-17T04:56:29;96830.25;;;9.99
15170;BMP280;7685;47.406;8.540;2024-03-17T04:58:55;96837.19;;;9.95
15170;BMP280;7685;47.406;8.540;2024-03-17T05:01:21;96837.19;;;9.95
15170;BMP280;7685;47.406;8.540;2024-03-17T05:03:51;96837.00;;;9.93
15170;BMP280;7685;47.406;8.540;2024-03-17T05:06:16;96834.34;;;9.93
15170;BMP280;7685;47.406;8.540;2024-03-17T05:08:42;96830.13;;;9.90
15170;BMP280;7685;47.406;8.540;2024-03-17T05:11:08;96827.69;;;9.84
15170;BMP280;7685;47.406;8.540;2024-03-17T05:13:35;96832.25;;;9.83
15170;BMP280;7685;47.406;8.540;2024-03-17T05:16:01;96825.53;;;9.82
15170;BMP280;7685;47.406;8.540;2024-03-17T05:18:29;96820.94;;;9.83
15170;BMP280;7685;47.406;8.540;2024-03-17T05:21:03;96822.72;;;9.80
15170;BMP280;7685;47.406;8.540;2024-03-17T05:23:30;96809.47;;;9.80
15170;BMP280;7685;47.406;8.540;2024-03-17T05:25:57;96820.94;;;9.83
15170;BMP280;7685;47.406;8.540;2024-03-17T05:28:24;96818.84;;;9.81
15170;BMP280;7685;47.406;8.540;2024-03-17T05:30:50;96822.88;;;9.82
15170;BMP280;7685;47.406;8.540;2024-03-17T05:33:17;96823.78;;;9.77
15170;BMP280;7685;47.406;8.540;2024-03-17T05:35:56;96831.75;;;9.77
15170;BMP280;7685;47.406;8.540;2024-03-17T05:38:23;96829.09;;;9.77
15170;BMP280;7685;47.406;8.540;2024-03-17T05:41:09;96830.34;;;9.76
15170;BMP280;7685;47.406;8.540;2024-03-17T05:43:36;96836.91;;;9.75
15170;BMP280;7685;47.406;8.540;2024-03-17T05:46:07;96835.66;;;9.76
15170;BMP280;7685;47.406;8.540;2024-03-17T05:48:35;96829.66;;;9.76
15170;BMP280;7685;47.406;8.540;2024-03-17T05:51:03;96833.91;;;9.79
15170;BMP280;7685;47.406;8.540;2024-03-17T05:53:29;96835.47;;;9.82
15170;BMP280;7685;47.406;8.540;2024-03-17T05:56:01;96833.69;;;9.84
15170;BMP280;7685;47.406;8.540;2024-03-17T05:58:27;96823.22;;;9.86
15170;BMP280;7685;47.406;8.540;2024-03-17T06:00:53;96832.63;;;9.88
15170;BMP280;7685;47.406;8.540;2024-03-17T06:03:18;96837.94;;;9.88
15170;BMP280;7685;47.406;8.540;2024-03-17T06:05:45;96844.66;;;9.89
15170;BMP280;7685;47.406;8.540;2024-03-17T06:08:14;96846.59;;;9.88
15170;BMP280;7685;47.406;8.540;2024-03-17T06:10:45;96851.19;;;9.88
15170;BMP280;7685;47.406;8.540;2024-03-17T06:13:13;96849.94;;;9.89
15170;BMP280;7685;47.406;8.540;2024-03-17T06:15:40;96847.31;;;9.89
15170;BMP280;7685;47.406;8.540;2024-03-17T06:18:08;96853.47;;;9.91
15170;BMP280;7685;47.406;8.540;2024-03-17T06:20:35;96853.63;;;9.93
15170;BMP280;7685;47.406;8.540;2024-03-17T06:23:01;96847.97;;;9.97
15170;BMP280;7685;47.406;8.540;2024-03-17T06:25:27;96855.91;;;10.04
15170;BMP280;7685;47.406;8.540;2024-03-17T06:27:53;96845.81;;;10.03
15170;BMP280;7685;47.406;8.540;2024-03-17T06:30:19;96854.13;;;10.07
15170;BMP280;7685;47.406;8.540;2024-03-17T06:32:45;96845.78;;;10.10
15170;BMP280;7685;47.406;8.540;2024-03-17T06:35:11;96846.66;;;10.13
15170;BMP280;7685;47.406;8.540;2024-03-17T06:37:37;96848.78;;;10.15
15170;BMP280;7685;47.406;8.540;2024-03-17T06:40:04;96843.47;;;10.15
15170;BMP280;7685;47.406;8.540;2024-03-17T06:42:31;96841.34;;;10.13
15170;BMP280;7685;47.406;8.540;2024-03-17T06:44:57;96854.09;;;10.15
15170;BMP280;7685;47.406;8.540;2024-03-17T06:47:24;96848.59;;;10.12
15170;BMP280;7685;47.406;8.540;2024-03-17T06:49:50;96834.47;;;10.10
15170;BMP280;7685;47.406;8.540;2024-03-17T06:52:16;96840.28;;;10.08
15170;BMP280;7685;47.406;8.540;2024-03-17T06:54:41;96839.59;;;10.08
15170;BMP280;7685;47.406;8.540;2024-03-17T06:57:07;96838.22;;;10.07
15170;BMP280;7685;47.406;8.540;2024-03-17T06:59:33;96847.72;;;10.10
15170;BMP280;7685;47.406;8.540;2024-03-17T07:01:58;96847.56;;;10.08
15170;BMP280;7685;47.406;8.540;2024-03-17T07:04:24;96844.91;;;10.08
15170;BMP280;7685;47.406;8.540;2024-03-17T07:06:49;96845.59;;;10.08
15170;BMP280;7685;47.406;8.540;2024-03-17T07:09:16;96844.53;;;10.11
15170;BMP280;7685;47.406;8.540;2024-03-17T07:11:43;96837.13;;;10.10
15170;BMP280;7685;47.406;8.540;2024-03-17T07:14:09;96845.22;;;10.12
15170;BMP280;7685;47.406;8.540;2024-03-17T07:16:35;96841.19;;;10.11
15170;BMP280;7685;47.406;8.540;2024-03-17T07:19:03;96838.53;;;10.11
15170;BMP280;7685;47.406;8.540;2024-03-17T07:21:30;96835.50;;;10.15
15170;BMP280;7685;47.406;8.540;2024-03-17T07:23:56;96845.53;;;10.16
15170;BMP280;7685;47.406;8.540;2024-03-17T07:26:25;96844.31;;;10.17
15170;BMP280;7685;47.406;8.540;2024-03-17T07:28:50;96849.28;;;10.21
15170;BMP280;7685;47.406;8.540;2024-03-17T07:31:16;96854.03;;;10.22
15170;BMP280;7685;47.406;8.540;2024-03-17T07:33:41;96846.63;;;10.21
15170;BMP280;7685;47.406;8.540;2024-03-17T07:36:07;96848.72;;;10.22
15170;BMP280;7685;47.406;8.540;2024-03-17T07:38:34;96852.06;;;10.30
15170;BMP280;7685;47.406;8.540;2024-03-17T07:41:02;96855.19;;;10.36
15170;BMP280;7685;47.406;8.540;2024-03-17T07:43:29;96851.59;;;10.42
15170;BMP280;7685;47.406;8.540;2024-03-17T07:46:05;96854.78;;;10.48
15170;BMP280;7685;47.406;8.540;2024-03-17T07:48:36;96851.19;;;10.53
15170;BMP280;7685;47.406;8.540;2024-03-17T07:51:03;96846.38;;;10.59
15170;BMP280;7685;47.406;8.540;2024-03-17T07:53:30;96844.94;;;10.65
15170;BMP280;7685;47.406;8.540;2024-03-17T07:56:00;96839.91;;;10.70
15170;BMP280;7685;47.406;8.540;2024-03-17T07:58:27;96835.97;;;10.78
15170;BMP280;7685;47.406;8.540;2024-03-17T08:00:57;96838.41;;;10.84
15170;BMP280;7685;47.406;8.540;2024-03-17T08:03:25;96842.38;;;10.92
15170;BMP280;7685;47.406;8.540;2024-03-17T08:05:51;96838.66;;;10.96
15170;BMP280;7685;47.406;8.540;2024-03-17T08:08:19;96838.59;;;11.03
15170;BMP280;7685;47.406;8.540;2024-03-17T08:10:44;96838.34;;;11.09
15170;BMP280;7685;47.406;8.540;2024-03-17T08:13:12;96833.81;;;11.19
15170;BMP280;7685;47.406;8.540;2024-03-17T08:15:42;96837.28;;;11.29
15170;BMP280;7685;47.406;8.540;2024-03-17T08:18:09;96837.91;;;11.37
15170;BMP280;7685;47.406;8.540;2024-03-17T08:20:42;96835.84;;;11.45
15170;BMP280;7685;47.406;8.540;2024-03-17T08:23:09;96835.09;;;11.53
15170;BMP280;7685;47.406;8.540;2024-03-17T08:25:36;96834.44;;;11.62
15170;BMP280;7685;47.406;8.540;2024-03-17T08:28:03;96834.16;;;11.67
15170;BMP280;7685;47.406;8.540;2024-03-17T08:30:29;96828.63;;;11.73
15170;BMP280;7685;47.406;8.540;2024-03-17T08:32:58;96823.59;;;11.77
15170;BMP280;7685;47.406;8.540;2024-03-17T08:35:23;96828.00;;;11.82
15170;BMP280;7685;47.406;8.540;2024-03-17T08:37:49;96829.72;;;11.87
15170;BMP280;7685;47.406;8.540;2024-03-17T08:40:17;96830.16;;;11.93
15170;BMP280;7685;47.406;8.540;2024-03-17T08:42:43;96826.53;;;11.98
15170;BMP280;7685;47.406;8.540;2024-03-17T08:45:10;96828.25;;;12.04
15170;BMP280;7685;47.406;8.540;2024-03-17T08:47:36;96829.63;;;12.05
15170;BMP280;7685;47.406;8.540;2024-03-17T08:50:02;96827.84;;;12.07
15170;BMP280;7685;47.406;8.540;2024-03-17T08:52:33;96840.50;;;12.16
15170;BMP280;7685;47.406;8.540;2024-03-17T08:54:58;96837.44;;;12.20
15170;BMP280;7685;47.406;8.540;2024-03-17T08:57:24;96841.81;;;12.25
15170;BMP280;7685;47.406;8.540;2024-03-17T08:59:50;96836.59;;;12.27
15170;BMP280;7685;47.406;8.540;2024-03-17T09:02:18;96839.56;;;12.31
15170;BMP280;7685;47.406;8.540;2024-03-17T09:04:45;96848.72;;;12.38
15170;BMP280;7685;47.406;8.540;2024-03-17T09:07:10;96839.59;;;12.41
15170;BMP280;7685;47.406;8.540;2024-03-17T09:09:36;96837.09;;;12.43
15170;BMP280;7685;47.406;8.540;2024-03-17T09:12:01;96842.16;;;12.48
15170;BMP280;7685;47.406;8.540;2024-03-17T09:14:29;96841.34;;;12.56
15170;BMP280;7685;47.406;8.540;2024-03-17T09:16:54;96833.09;;;12.61
15170;BMP280;7685;47.406;8.540;2024-03-17T09:19:21;96829.84;;;12.63
15170;BMP280;7685;47.406;8.540;2024-03-17T09:21:47;96827.50;;;12.67
15170;BMP280;7685;47.406;8.540;2024-03-17T09:24:13;96831.84;;;12.72
15170;BMP280;7685;47.406;8.540;2024-03-17T09:26:38;96817.25;;;12.73
15170;BMP280;7685;47.406;8.540;2024-03-17T09:29:05;96815.59;;;12.77
15170;BMP280;7685;47.406;8.540;2024-03-17T09:31:30;96817.84;;;12.81
15170;BMP280;7685;47.406;8.540;2024-03-17T09:33:59;96819.53;;;12.86
15170;BMP280;7685;47.406;8.540;2024-03-17T09:36:24;96816.44;;;12.90
15170;BMP280;7685;47.406;8.540;2024-03-17T09:38:50;96815.47;;;12.95
15170;BMP280;7685;47.406;8.540;2024-03-17T09:41:23;96815.91;;;13.01
15170;BMP280;7685;47.406;8.540;2024-03-17T09:43:53;96811.53;;;13.05
15170;BMP280;7685;47.406;8.540;2024-03-17T09:46:20;96804.53;;;13.10
15170;BMP280;7685;47.406;8.540;2024-03-17T09:48:47;96800.19;;;13.15
15170;BMP280;7685;47.406;8.540;2024-03-17T09:51:23;96812.25;;;13.16
15170;BMP280;7685;47.406;8.540;2024-03-17T09:53:49;96801.88;;;13.20
15170;BMP280;7685;47.406;8.540;2024-03-17T09:56:17;96810.84;;;13.24
15170;BMP280;7685;47.406;8.540;2024-03-17T09:58:45;96798.91;;;13.25
15170;BMP280;7685;47.406;8.540;2024-03-17T10:01:10;96797.75;;;13.28
15170;BMP280;7685;47.406;8.540;2024-03-17T10:06:15;96800.88;;;13.35
15170;BMP280;7685;47.406;8.540;2024-03-17T10:08:51;96792.16;;;13.34
15170;BMP280;7685;47.406;8.540;2024-03-17T10:11:20;96798.91;;;13.35
15170;BMP280;7685;47.406;8.540;2024-03-17T10:13:58;96797.75;;;13.38
15170;BMP280;7685;47.406;8.540;2024-03-17T10:16:26;96799.19;;;13.39
15170;BMP280;7685;47.406;8.540;2024-03-17T10:19:12;96795.38;;;13.42
15170;BMP280;7685;47.406;8.540;2024-03-17T10:21:40;96796.06;;;13.43
15170;BMP280;7685;47.406;8.540;2024-03-17T10:26:56;96811.22;;;13.50
15170;BMP280;7685;47.406;8.540;2024-03-17T10:31:55;96810.25;;;13.55
15170;BMP280;7685;47.406;8.540;2024-03-17T10:34:25;96808.28;;;13.55
15170;BMP280;7685;47.406;8.540;2024-03-17T10:36:52;96806.91;;;13.54
15170;BMP280;7685;47.406;8.540;2024-03-17T10:39:30;96815.88;;;13.59
15170;BMP280;7685;47.406;8.540;2024-03-17T10:41:58;96817.13;;;13.58
15170;BMP280;7685;47.406;8.540;2024-03-17T10:44:28;96813.31;;;13.61
15170;BMP280;7685;47.406;8.540;2024-03-17T10:46:55;96817.56;;;13.64
15170;BMP280;7685;47.406;8.540;2024-03-17T10:49:29;96820.91;;;13.65
15170;BMP280;7685;47.406;8.540;2024-03-17T10:52:16;96814.44;;;13.68
15170;BMP280;7685;47.406;8.540;2024-03-17T10:54:50;96815.13;;;13.68
15170;BMP280;7685;47.406;8.540;2024-03-17T10:59:59;96817.09;;;13.68
15170;BMP280;7685;47.406;8.540;2024-03-17T11:02:26;96823.84;;;13.69
15170;BMP280;7685;47.406;8.540;2024-03-17T11:04:59;96838.59;;;13.70
15170;BMP280;7685;47.406;8.540;2024-03-17T11:07:25;96830.75;;;13.72
15170;BMP280;7685;47.406;8.540;2024-03-17T11:09:53;96829.59;;;13.75
15170;BMP280;7685;47.406;8.540;2024-03-17T11:12:51;96841.81;;;13.78
15170;BMP280;7685;47.406;8.540;2024-03-17T11:23:28;96838.31;;;13.75
15170;BMP280;7685;47.406;8.540;2024-03-17T11:25:54;96843.34;;;13.81
15170;BMP280;7685;47.406;8.540;2024-03-17T11:28:56;96848.97;;;13.85
15170;BMP280;7685;47.406;8.540;2024-03-17T11:34:07;96845.31;;;13.90
15170;BMP280;7685;47.406;8.540;2024-03-17T11:36:50;96836.84;;;13.94
15170;BMP280;7685;47.406;8.540;2024-03-17T11:39:16;96830.81;;;13.93
15170;BMP280;7685;47.406;8.540;2024-03-17T11:41:53;96828.44;;;13.97
15170;BMP280;7685;47.406;8.540;2024-03-17T11:49:31;96819.09;;;14.08
15170;BMP280;7685;47.406;8.540;2024-03-17T11:52:00;96814.59;;;14.10
15170;BMP280;7685;47.406;8.540;2024-03-17T11:54:27;96798.56;;;14.10
15170;BMP280;7685;47.406;8.540;2024-03-17T11:56:54;96804.72;;;14.13
15170;BMP280;7685;47.406;8.540;2024-03-17T11:59:21;96804.31;;;14.17
15170;BMP280;7685;47.406;8.540;2024-03-17T12:01:50;96797.66;;;14.18
15170;BMP280;7685;47.406;8.540;2024-03-17T12:04:17;96801.19;;;14.20
15170;BMP280;7685;47.406;8.540;2024-03-17T12:06:55;96787.13;;;14.20
15170;BMP280;7685;47.406;8.540;2024-03-17T12:09:21;96796.78;;;14.25
15170;BMP280;7685;47.406;8.540;2024-03-17T12:11:51;96800.31;;;14.27
15170;BMP280;7685;47.406;8.540;2024-03-17T12:14:20;96801.00;;;14.28
15170;BMP280;7685;47.406;8.540;2024-03-17T12:16:50;96801.59;;;14.26
15170;BMP280;7685;47.406;8.540;2024-03-17T12:19:17;96801.72;;;14.28
15170;BMP280;7685;47.406;8.540;2024-03-17T12:21:45;96807.16;;;14.30
15170;BMP280;7685;47.406;8.540;2024-03-17T12:24:21;96797.09;;;14.29
15170;BMP280;7685;47.406;8.540;2024-03-17T12:26:49;96803.13;;;14.29
15170;BMP280;7685;47.406;8.540;2024-03-17T12:29:26;96796.47;;;14.30
15170;BMP280;7685;47.406;8.540;2024-03-17T12:31:54;96795.22;;;14.31
15170;BMP280;7685;47.406;8.540;2024-03-17T12:34:21;96790.59;;;14.32
15170;BMP280;7685;47.406;8.540;2024-03-17T12:36:47;96794.66;;;14.33
15170;BMP280;7685;47.406;8.540;2024-03-17T12:39:24;96789.06;;;14.29
15170;BMP280;7685;47.406;8.540;2024-03-17T12:42:14;96788.47;;;14.30
15170;BMP280;7685;47.406;8.540;2024-03-17T12:44:47;96782.19;;;14.26
15170;BMP280;7685;47.406;8.540;2024-03-17T12:47:20;96788.91;;;14.27
15170;BMP280;7685;47.406;8.540;2024-03-17T12:49:50;96783.56;;;14.27
15170;BMP280;7685;47.406;8.540;2024-03-17T12:52:22;96777.28;;;14.22
15170;BMP280;7685;47.406;8.540;2024-03-17T12:57:51;96781.47;;;14.25
15170;BMP280;7685;47.406;8.540;2024-03-17T13:00:37;96778.69;;;14.23
15170;BMP280;7685;47.406;8.540;2024-03-17T13:03:06;96781.59;;;14.27
15170;BMP280;7685;47.406;8.540;2024-03-17T13:05:35;96774.97;;;14.28
15170;BMP280;7685;47.406;8.540;2024-03-17T13:08:02;96761.50;;;14.26
15170;BMP280;7685;47.406;8.540;2024-03-17T13:10:29;96761.75;;;14.30
15170;BMP280;7685;47.406;8.540;2024-03-17T13:13:05;96759.91;;;14.33
15170;BMP280;7685;47.406;8.540;2024-03-17T13:15:32;96760.06;;;14.35
15170;BMP280;7685;47.406;8.540;2024-03-17T13:18:00;96757.47;;;14.37
15170;BMP280;7685;47.406;8.540;2024-03-17T13:20:26;96745.50;;;14.38
15170;BMP280;7685;47.406;8.540;2024-03-17T13:22:52;96741.72;;;14.41
15170;BMP280;7685;47.406;8.540;2024-03-17T13:25:21;96747.88;;;14.43
15170;BMP280;7685;47.406;8.540;2024-03-17T13:27:49;96736.06;;;14.47
15170;BMP280;7685;47.406;8.540;2024-03-17T13:30:16;96732.09;;;14.48
15170;BMP280;7685;47.406;8.540;2024-03-17T13:32:42;96730.41;;;14.52
15170;BMP280;7685;47.406;8.540;2024-03-17T13:35:16;96721.91;;;14.56
15170;BMP280;7685;47.406;8.540;2024-03-17T13:37:44;96718.66;;;14.57
15170;BMP280;7685;47.406;8.540;2024-03-17T13:40:10;96709.63;;;14.62
15170;BMP280;7685;47.406;8.540;2024-03-17T13:42:41;96706.03;;;14.69
15170;BMP280;7685;47.406;8.540;2024-03-17T13:45:10;96708.25;;;14.73
15170;BMP280;7685;47.406;8.540;2024-03-17T13:47:36;96712.91;;;14.73
15170;BMP280;7685;47.406;8.540;2024-03-17T13:50:02;96714.44;;;14.76
15170;BMP280;7685;47.406;8.540;2024-03-17T13:52:32;96711.78;;;14.76
15170;BMP280;7685;47.406;8.540;2024-03-17T13:54:58;96703.88;;;14.78
15170;BMP280;7685;47.406;8.540;2024-03-17T13:57:25;96698.63;;;14.80
15170;BMP280;7685;47.406;8.540;2024-03-17T13:59:50;96684.56;;;14.79
15170;BMP280;7685;47.406;8.540;2024-03-17T14:02:17;96685.06;;;14.87
15170;BMP280;7685;47.406;8.540;2024-03-17T14:04:44;96677.28;;;14.91
15170;BMP280;7685;47.406;8.540;2024-03-17T14:07:11;96670.78;;;14.94
15170;BMP280;7685;47.406;8.540;2024-03-17T14:09:37;96672.97;;;14.98
15170;BMP280;7685;47.406;8.540;2024-03-17T14:12:02;96663.78;;;15.01
15170;BMP280;7685;47.406;8.540;2024-03-17T14:14:28;96667.84;;;15.02
15170;BMP280;7685;47.406;8.540;2024-03-17T14:16:54;96663.34;;;15.05
15170;BMP280;7685;47.406;8.540;2024-03-17T14:19:19;96668.13;;;15.06
15170;BMP280;7685;47.406;8.540;2024-03-17T14:21:45;96659.84;;;15.02
15170;BMP280;7685;47.406;8.540;2024-03-17T14:24:10;96654.41;;;15.00
15170;BMP280;7685;47.406;8.540;2024-03-17T14:26:36;96650.06;;;14.95
15170;BMP280;7685;47.406;8.540;2024-03-17T14:29:02;96658.31;;;14.99
15170;BMP280;7685;47.406;8.540;2024-03-17T14:31:34;96666.78;;;14.95
15170;BMP280;7685;47.406;8.540;2024-03-17T14:34:03;96667.28;;;14.92
15170;BMP280;7685;47.406;8.540;2024-03-17T14:36:32;96671.09;;;14.89
15170;BMP280;7685;47.406;8.540;2024-03-17T14:39:01;96680.16;;;14.84
15170;BMP280;7685;47.406;8.540;2024-03-17T14:41:28;96673.06;;;14.77
15170;BMP280;7685;47.406;8.540;2024-03-17T14:43:54;96673.41;;;14.71
15170;BMP280;7685;47.406;8.540;2024-03-17T14:46:20;96668.22;;;14.63
15170;BMP280;7685;47.406;8.540;2024-03-17T14:48:46;96666.69;;;14.60
15170;BMP280;7685;47.406;8.540;2024-03-17T14:51:12;96671.81;;;14.56
15170;BMP280;7685;47.406;8.540;2024-03-17T14:53:38;96654.00;;;14.49
15170;BMP280;7685;47.406;8.540;2024-03-17T14:56:14;96656.69;;;14.49
15170;BMP280;7685;47.406;8.540;2024-03-17T14:58:44;96656.56;;;14.47